Time;durP1;ratioP1;P1;durP2;ratioP2;P2;SDS_P1;SDS_P2;PMS_P1;PMS_P2;Temp;Humidity;BMP_temperature;BMP_pressure;BME280_temperature;BME280_humidity;BME280_pressure;Samples;Min_cycle;Max_cycle;Signal;HPM_P1;HPM_P2
2023/09/10 00:01:40;;;;;;;14.35;7.53;;;;;;;;;;5027879;28;20145;-72
2023/09/10 00:04:09;;;;;;;12.07;6.57;;;;;;;;;;5024963;28;20052;-71
2023/09/10 00:06:36;;;;;;;11.68;7.22;;;;;;;;;;5029759;28;20048;-72
2023/09/10 00:09:07;;;;;;;14.70;7.00;;;;;;;;;;5027586;28;20057;-72
2023/09/10 00:11:35;;;;;;;14.90;7.03;;;;;;;;;;5024645;28;20057;-71
2023/09/10 00:14:02;;;;;;;10.93;6.90;;;;;;;;;;5032869;28;20067;-72
2023/09/10 00:16:29;;;;;;;10.60;6.75;;;;;;;;;;5041325;28;20040;-72
2023/09/10 00:18:59;;;;;;;21.52;13.82;;;;;;;;;;5060349;28;20109;-71
2023/09/10 00:21:27;;;;;;;43.10;26.60;;;;;;;;;;5045607;28;20132;-72
2023/09/10 00:23:54;;;;;;;48.88;29.13;;;;;;;;;;5035400;28;20048;-71
2023/09/10 00:26:21;;;;;;;26.42;16.58;;;;;;;;;;5051287;28;20044;-72
2023/09/10 00:28:49;;;;;;;15.05;8.23;;;;;;;;;;5038499;28;20126;-70
2023/09/10 00:31:16;;;;;;;13.23;8.05;;;;;;;;;;5038042;28;20127;-72
2023/09/10 00:33:43;;;;;;;12.13;6.85;;;;;;;;;;5049445;28;20154;-72
2023/09/10 00:36:10;;;;;;;11.38;6.63;;;;;;;;;;5044692;28;20098;-71
2023/09/10 00:38:39;;;;;;;11.55;6.55;;;;;;;;;;5040645;28;20055;-70
2023/09/10 00:41:07;;;;;;;11.32;6.28;;;;;;;;;;5040937;28;20048;-72
2023/09/10 00:43:34;;;;;;;10.93;6.68;;;;;;;;;;5044441;28;20044;-71
2023/09/10 00:46:03;;;;;;;9.95;5.97;;;;;;;;;;5044473;28;20056;-70
2023/09/10 00:48:31;;;;;;;11.07;6.15;;;;;;;;;;5038001;28;20052;-70
2023/09/10 00:50:59;;;;;;;12.98;6.95;;;;;;;;;;5042938;28;20060;-72
2023/09/10 00:53:27;;;;;;;11.73;6.38;;;;;;;;;;5036503;28;20173;-71
2023/09/10 00:55:55;;;;;;;11.68;6.20;;;;;;;;;;5059748;28;20077;-70
2023/09/10 00:58:22;;;;;;;13.07;6.93;;;;;;;;;;5057595;28;20056;-72
2023/09/10 01:00:49;;;;;;;11.57;6.53;;;;;;;;;;5063783;28;20048;-71
2023/09/10 01:03:17;;;;;;;11.85;7.07;;;;;;;;;;5055299;28;20060;-73
2023/09/10 01:05:44;;;;;;;12.88;6.40;;;;;;;;;;5064516;28;20056;-72
2023/09/10 01:08:11;;;;;;;11.63;7.05;;;;;;;;;;5056183;28;20082;-71
2023/09/10 01:10:44;;;;;;;12.82;6.30;;;;;;;;;;5051287;28;20130;-71
2023/09/10 01:13:30;;;;;;;11.05;6.43;;;;;;;;;;5054300;28;20056;-72
2023/09/10 01:16:03;;;;;;;16.83;6.65;;;;;;;;;;5046854;28;20059;-72
2023/09/10 01:18:37;;;;;;;13.65;6.38;;;;;;;;;;5056867;28;20055;-70
2023/09/10 01:21:22;;;;;;;11.05;6.25;;;;;;;;;;5053334;28;20052;-71
2023/09/10 01:23:54;;;;;;;13.20;6.80;;;;;;;;;;5039931;28;20052;-72
2023/09/10 01:26:22;;;;;;;13.75;6.65;;;;;;;;;;5042864;28;20105;-72
2023/09/10 01:28:49;;;;;;;15.25;6.82;;;;;;;;;;5039003;28;20052;-72
2023/09/10 01:31:17;;;;;;;11.50;6.78;;;;;;;;;;5041000;28;20131;-72
2023/09/10 01:33:52;;;;;;;14.00;6.78;;;;;;;;;;5044218;28;20074;-72
2023/09/10 01:36:31;;;;;;;14.02;6.97;;;;;;;;;;5043008;28;20063;-70
2023/09/10 01:39:05;;;;;;;13.50;6.90;;;;;;;;;;5040492;28;20056;-71
2023/09/10 01:41:34;;;;;;;11.93;7.55;;;;;;;;;;5042994;28;20056;-71
2023/09/10 01:44:03;;;;;;;13.57;6.93;;;;;;;;;;5044416;28;20147;-73
2023/09/10 01:46:31;;;;;;;11.93;7.40;;;;;;;;;;5042592;28;20143;-72
2023/09/10 01:48:59;;;;;;;11.85;6.88;;;;;;;;;;4998215;28;20052;-72
2023/09/10 01:51:26;;;;;;;13.52;6.97;;;;;;;;;;5042293;28;20041;-71
2023/09/10 01:53:53;;;;;;;39.97;21.58;;;;;;;;;;5043660;28;20094;-71
2023/09/10 01:56:20;;;;;;;45.25;28.02;;;;;;;;;;5082914;28;20044;-71
2023/09/10 01:58:48;;;;;;;18.23;10.23;;;;;;;;;;5058492;28;20063;-70
2023/09/10 02:01:15;;;;;;;18.00;8.23;;;;;;;;;;5048271;28;20044;-71
2023/09/10 02:03:42;;;;;;;14.07;7.45;;;;;;;;;;5025305;28;20041;-72
2023/09/10 02:06:09;;;;;;;16.13;7.57;;;;;;;;;;5023053;28;20048;-71
2023/09/10 02:08:36;;;;;;;12.52;7.38;;;;;;;;;;5046638;28;20085;-72
2023/09/10 02:11:04;;;;;;;13.52;7.65;;;;;;;;;;5044100;28;20045;-72
2023/09/10 02:13:31;;;;;;;11.63;7.30;;;;;;;;;;5042132;28;20052;-72
2023/09/10 02:16:00;;;;;;;13.68;7.43;;;;;;;;;;5035306;28;20064;-72
2023/09/10 02:18:29;;;;;;;13.70;8.02;;;;;;;;;;5031942;28;20048;-70
2023/09/10 02:20:56;;;;;;;15.00;7.63;;;;;;;;;;5038408;28;20076;-71
2023/09/10 02:23:23;;;;;;;12.07;7.65;;;;;;;;;;5039228;28;20048;-71
2023/09/10 02:25:51;;;;;;;12.20;7.40;;;;;;;;;;5016087;28;20092;-72
2023/09/10 02:28:23;;;;;;;17.60;7.82;;;;;;;;;;5019631;28;20124;-71
2023/09/10 02:33:26;;;;;;;14.63;7.30;;;;;;;;;;5088246;23;20057;-65
2023/09/10 02:35:53;;;;;;;12.48;7.80;;;;;;;;;;4977485;28;20062;-65
2023/09/10 02:38:20;;;;;;;12.70;7.00;;;;;;;;;;4978674;28;20058;-68
2023/09/10 02:40:47;;;;;;;13.93;7.88;;;;;;;;;;4980616;28;20054;-67
2023/09/10 02:43:13;;;;;;;13.75;7.65;;;;;;;;;;4981548;28;20054;-72
2023/09/10 02:45:40;;;;;;;12.93;7.63;;;;;;;;;;4970054;28;20082;-69
2023/09/10 02:48:07;;;;;;;14.35;8.07;;;;;;;;;;4997876;28;20054;-68
2023/09/10 02:50:35;;;;;;;16.02;7.43;;;;;;;;;;5002996;28;21110;-72
2023/09/10 02:53:02;;;;;;;10.38;6.68;;;;;;;;;;5013779;28;20062;-67
2023/09/10 02:55:29;;;;;;;16.67;8.98;;;;;;;;;;4973538;28;20062;-66
2023/09/10 02:57:55;;;;;;;14.10;7.85;;;;;;;;;;4977644;28;20108;-66
2023/09/10 03:00:25;;;;;;;15.23;8.35;;;;;;;;;;4971730;28;20182;-69
2023/09/10 03:02:52;;;;;;;14.48;8.00;;;;;;;;;;4979620;28;20093;-66
2023/09/10 03:05:22;;;;;;;14.35;8.05;;;;;;;;;;4973824;28;20054;-67
2023/09/10 03:07:54;;;;;;;13.82;8.20;;;;;;;;;;4974975;28;20100;-64
2023/09/10 03:10:21;;;;;;;16.00;8.85;;;;;;;;;;4964255;28;20194;-69
2023/09/10 03:12:48;;;;;;;20.60;8.98;;;;;;;;;;4965695;28;20055;-64
2023/09/10 03:15:14;;;;;;;16.33;8.75;;;;;;;;;;4953471;28;20070;-64
2023/09/10 03:17:41;;;;;;;15.93;9.07;;;;;;;;;;4958671;28;20050;-71
2023/09/10 03:20:10;;;;;;;17.33;9.63;;;;;;;;;;4966157;28;20054;-65
2023/09/10 03:22:36;;;;;;;20.73;9.98;;;;;;;;;;4953353;28;20118;-69
2023/09/10 03:25:05;;;;;;;17.95;10.05;;;;;;;;;;4961087;28;20055;-65
2023/09/10 03:27:32;;;;;;;19.08;10.13;;;;;;;;;;4973378;28;20054;-65
2023/09/10 03:29:59;;;;;;;16.30;9.57;;;;;;;;;;4973354;28;20058;-64
2023/09/10 03:32:25;;;;;;;18.83;11.05;;;;;;;;;;4964255;28;20062;-68
2023/09/10 03:34:52;;;;;;;16.85;10.18;;;;;;;;;;4958730;28;20125;-64
2023/09/10 03:37:19;;;;;;;16.75;9.90;;;;;;;;;;4961112;28;20157;-64
2023/09/10 03:39:45;;;;;;;16.77;10.07;;;;;;;;;;4962229;28;20108;-67
2023/09/10 03:42:16;;;;;;;22.92;11.18;;;;;;;;;;4962137;28;20070;-67
2023/09/10 03:44:42;;;;;;;19.48;11.80;;;;;;;;;;4968417;28;20054;-69
2023/09/10 03:47:09;;;;;;;22.33;11.05;;;;;;;;;;4985735;28;20058;-68
2023/09/10 03:49:36;;;;;;;34.92;10.88;;;;;;;;;;5001488;28;20081;-70
2023/09/10 03:52:15;;;;;;;24.17;12.02;;;;;;;;;;5016569;28;20057;-68
2023/09/10 03:54:41;;;;;;;19.13;10.98;;;;;;;;;;4983683;28;20046;-70
2023/09/10 03:57:08;;;;;;;17.40;10.88;;;;;;;;;;4981262;28;20059;-64
2023/09/10 03:59:36;;;;;;;25.23;11.35;;;;;;;;;;4975445;28;20170;-63
2023/09/10 04:02:03;;;;;;;18.75;11.93;;;;;;;;;;4980543;28;20050;-67
2023/09/10 04:04:30;;;;;;;22.35;11.18;;;;;;;;;;4968795;28;20138;-63
2023/09/10 04:06:57;;;;;;;18.60;10.88;;;;;;;;;;4982965;28;20094;-67
2023/09/10 04:09:24;;;;;;;19.60;11.80;;;;;;;;;;4959450;28;20077;-70
2023/09/10 04:11:51;;;;;;;16.85;10.52;;;;;;;;;;4996967;28;20138;-68
2023/09/10 04:14:18;;;;;;;20.48;12.10;;;;;;;;;;4971854;28;20054;-69
2023/09/10 04:16:46;;;;;;;22.48;11.35;;;;;;;;;;4991886;28;20057;-68
2023/09/10 04:19:12;;;;;;;20.33;11.82;;;;;;;;;;4981855;28;20128;-64
2023/09/10 04:21:39;;;;;;;22.92;11.32;;;;;;;;;;4993632;28;20058;-67
2023/09/10 04:24:06;;;;;;;17.13;10.55;;;;;;;;;;4970903;28;20082;-67
2023/09/10 04:26:33;;;;;;;22.95;11.48;;;;;;;;;;4972482;28;20257;-69
2023/09/10 04:29:00;;;;;;;21.42;11.88;;;;;;;;;;4995455;28;20066;-66
2023/09/10 04:31:28;;;;;;;23.98;11.98;;;;;;;;;;4982095;28;20112;-72
2023/09/10 04:33:56;;;;;;;21.48;12.77;;;;;;;;;;4989828;28;20126;-62
2023/09/10 04:36:23;;;;;;;18.35;10.82;;;;;;;;;;4966237;28;20046;-62
2023/09/10 04:38:49;;;;;;;23.25;11.95;;;;;;;;;;4996150;28;20058;-66
2023/09/10 04:41:16;;;;;;;19.52;11.40;;;;;;;;;;4973809;28;20209;-69
2023/09/10 04:43:43;;;;;;;21.92;11.80;;;;;;;;;;4973194;28;20135;-63
2023/09/10 04:46:09;;;;;;;24.30;11.38;;;;;;;;;;4974143;28;20108;-65
2023/09/10 04:48:36;;;;;;;20.92;11.18;;;;;;;;;;4990027;28;20333;-69
2023/09/10 04:51:04;;;;;;;18.08;11.02;;;;;;;;;;4980296;28;20062;-71
2023/09/10 04:53:31;;;;;;;19.20;11.18;;;;;;;;;;4974265;28;20141;-68
2023/09/10 04:55:59;;;;;;;19.23;10.88;;;;;;;;;;4976113;28;20084;-65
2023/09/10 04:58:25;;;;;;;20.17;11.18;;;;;;;;;;4982674;28;20134;-64
2023/09/10 05:00:52;;;;;;;20.88;11.60;;;;;;;;;;4980683;28;20055;-66
2023/09/10 05:03:21;;;;;;;20.05;11.52;;;;;;;;;;4973877;28;20065;-72
2023/09/10 05:05:48;;;;;;;22.02;12.32;;;;;;;;;;4971875;28;20089;-66
2023/09/10 05:08:16;;;;;;;19.92;11.52;;;;;;;;;;4970814;28;20127;-66
2023/09/10 05:10:43;;;;;;;;;;;;;;;;;;4975882;28;20145;-69
2023/09/10 05:13:09;;;;;;;19.05;10.75;;;;;;;;;;4973481;28;19925;-66
2023/09/10 05:15:39;;;;;;;20.77;11.95;;;;;;;;;;4973688;28;20054;-71
2023/09/10 05:18:06;;;;;;;23.80;12.52;;;;;;;;;;4971182;28;20141;-64
2023/09/10 05:20:33;;;;;;;20.25;11.90;;;;;;;;;;4970608;28;20138;-68
2023/09/10 05:22:59;;;;;;;21.77;12.63;;;;;;;;;;4995200;28;20050;-65
2023/09/10 05:25:28;;;;;;;20.73;12.55;;;;;;;;;;4969122;28;20125;-68
2023/09/10 05:27:54;;;;;;;22.65;12.90;;;;;;;;;;4979372;28;20054;-65
2023/09/10 05:30:21;;;;;;;20.05;12.43;;;;;;;;;;4966471;28;20054;-66
2023/09/10 05:32:48;;;;;;;22.83;13.13;;;;;;;;;;4980347;28;20058;-64
2023/09/10 05:35:16;;;;;;;23.63;13.77;;;;;;;;;;4966645;28;20058;-74
2023/09/10 05:37:43;;;;;;;;;;;;;;;;;;4995046;28;20061;-68
2023/09/10 05:40:10;;;;;;;31.65;12.32;;;;;;;;;;4980523;28;19972;-66
2023/09/10 05:42:38;;;;;;;23.20;12.80;;;;;;;;;;4967387;28;20240;-69
2023/09/10 05:45:06;;;;;;;21.90;13.05;;;;;;;;;;4973325;28;20118;-64
2023/09/10 05:47:33;;;;;;;22.25;12.57;;;;;;;;;;4977790;28;20062;-67
2023/09/10 05:50:01;;;;;;;21.67;12.80;;;;;;;;;;4978374;28;20052;-72
2023/09/10 05:52:28;;;;;;;31.42;14.00;;;;;;;;;;4972671;28;20064;-67
2023/09/10 05:54:54;;;;;;;21.85;12.65;;;;;;;;;;4972435;28;20062;-65
2023/09/10 05:57:21;;;;;;;20.85;12.10;;;;;;;;;;4979946;28;20058;-65
2023/09/10 05:59:50;;;;;;;20.63;12.25;;;;;;;;;;4979412;28;20050;-72
2023/09/10 06:02:17;;;;;;;23.30;13.23;;;;;;;;;;4968284;28;20069;-65
2023/09/10 06:04:44;;;;;;;22.05;13.10;;;;;;;;;;4977147;28;20058;-63
2023/09/10 06:07:11;;;;;;;22.10;12.93;;;;;;;;;;5005491;28;20062;-69
2023/09/10 06:09:38;;;;;;;21.55;12.55;;;;;;;;;;4978047;28;20093;-66
2023/09/10 06:12:05;;;;;;;27.15;13.48;;;;;;;;;;4981853;28;20058;-67
2023/09/10 06:14:34;;;;;;;21.35;13.48;;;;;;;;;;4961411;28;20058;-69
2023/09/10 06:17:02;;;;;;;24.50;13.75;;;;;;;;;;4977491;28;20163;-68
2023/09/10 06:19:29;;;;;;;;;;;;;;;;;;4978661;28;20066;-63
2023/09/10 06:21:56;;;;;;;23.63;12.25;;;;;;;;;;4993064;28;19926;-70
2023/09/10 06:24:22;;;;;;;25.65;13.98;;;;;;;;;;4966318;28;20064;-67
2023/09/10 06:26:49;;;;;;;25.80;14.10;;;;;;;;;;4975779;28;20105;-63
2023/09/10 06:29:16;;;;;;;24.40;14.25;;;;;;;;;;4961525;28;20046;-69
2023/09/10 06:31:43;;;;;;;22.70;13.77;;;;;;;;;;4961701;28;20114;-69
2023/09/10 06:34:11;;;;;;;23.70;14.25;;;;;;;;;;4973812;28;20092;-63
2023/09/10 06:36:38;;;;;;;24.23;13.93;;;;;;;;;;4955424;28;20128;-72
2023/09/10 06:39:05;;;;;;;23.08;13.55;;;;;;;;;;4954666;28;20089;-69
2023/09/10 06:41:32;;;;;;;24.27;14.65;;;;;;;;;;4979111;28;20061;-64
2023/09/10 06:43:59;;;;;;;22.35;13.98;;;;;;;;;;4971877;28;20374;-67
2023/09/10 06:46:25;;;;;;;23.83;14.07;;;;;;;;;;4953609;28;20077;-71
2023/09/10 06:48:52;;;;;;;22.58;13.93;;;;;;;;;;4981057;28;20054;-67
2023/09/10 06:51:20;;;;;;;25.20;13.52;;;;;;;;;;4978203;28;20050;-69
2023/09/10 06:53:47;;;;;;;24.58;13.70;;;;;;;;;;4957139;28;20077;-65
2023/09/10 06:56:14;;;;;;;29.63;15.27;;;;;;;;;;4984105;28;20054;-70
2023/09/10 06:58:41;;;;;;;26.98;14.85;;;;;;;;;;4969641;28;20128;-68
2023/09/10 07:01:08;;;;;;;29.05;15.60;;;;;;;;;;4978964;28;20145;-65
2023/09/10 07:03:35;;;;;;;28.02;14.10;;;;;;;;;;4972721;28;20054;-70
2023/09/10 07:06:03;;;;;;;24.98;15.32;;;;;;;;;;4989402;28;20068;-65
2023/09/10 07:08:32;;;;;;;30.85;15.93;;;;;;;;;;5002852;28;20248;-71
2023/09/10 07:10:58;;;;;;;26.30;15.50;;;;;;;;;;4998176;28;20079;-68
2023/09/10 07:13:25;;;;;;;31.33;17.77;;;;;;;;;;4981036;28;20057;-61
2023/09/10 07:15:52;;;;;;;26.45;15.80;;;;;;;;;;4970895;28;20054;-68
2023/09/10 07:18:18;;;;;;;29.67;16.60;;;;;;;;;;4978105;28;20050;-69
2023/09/10 07:20:45;;;;;;;30.48;17.52;;;;;;;;;;4973245;28;20329;-65
2023/09/10 07:23:12;;;;;;;33.22;17.92;;;;;;;;;;4979296;28;20121;-65
2023/09/10 07:25:40;;;;;;;33.83;19.65;;;;;;;;;;4969568;28;20086;-65
2023/09/10 07:28:07;;;;;;;32.95;17.88;;;;;;;;;;4969674;28;20116;-66
2023/09/10 07:30:34;;;;;;;31.73;19.05;;;;;;;;;;4987749;28;20074;-65
2023/09/10 07:33:00;;;;;;;34.72;19.75;;;;;;;;;;4977234;28;20050;-66
2023/09/10 07:35:28;;;;;;;32.90;19.65;;;;;;;;;;4972774;28;20046;-68
2023/09/10 07:37:55;;;;;;;32.03;18.73;;;;;;;;;;4991757;28;20062;-66
2023/09/10 07:40:21;;;;;;;33.28;19.30;;;;;;;;;;4969711;28;20081;-71
2023/09/10 07:42:50;;;;;;;35.33;19.77;;;;;;;;;;4975998;28;20065;-63
2023/09/10 07:45:16;;;;;;;44.08;19.30;;;;;;;;;;4964711;28;20141;-70
2023/09/10 07:47:43;;;;;;;33.08;20.60;;;;;;;;;;4980495;28;20065;-62
2023/09/10 07:50:10;;;;;;;38.95;21.35;;;;;;;;;;4975537;28;20054;-65
2023/09/10 07:52:37;;;;;;;41.97;22.98;;;;;;;;;;4953294;28;20054;-68
2023/09/10 07:55:08;;;;;;;118.00;64.38;;;;;;;;;;4953062;28;20055;-72
2023/09/10 07:57:35;;;;;;;59.33;29.13;;;;;;;;;;4972386;28;20050;-68
2023/09/10 08:00:06;;;;;;;40.15;23.38;;;;;;;;;;4976765;28;20129;-66
2023/09/10 08:02:34;;;;;;;44.15;22.83;;;;;;;;;;4964319;28;20058;-65
2023/09/10 08:05:02;;;;;;;42.28;23.50;;;;;;;;;;4970549;28;20058;-69
2023/09/10 08:07:28;;;;;;;45.75;24.73;;;;;;;;;;4975559;28;20053;-71
2023/09/10 08:09:55;;;;;;;40.45;22.83;;;;;;;;;;4975531;28;20058;-65
2023/09/10 08:12:22;;;;;;;42.78;23.05;;;;;;;;;;4955143;28;20190;-64
2023/09/10 08:14:51;;;;;;;37.50;21.42;;;;;;;;;;4973303;28;20050;-68
2023/09/10 08:17:19;;;;;;;40.30;22.67;;;;;;;;;;4986263;28;20113;-64
2023/09/10 08:19:46;;;;;;;;;;;;;;;;;;4995904;28;20058;-63
2023/09/10 08:22:13;;;;;;;40.97;21.48;;;;;;;;;;4987569;28;19932;-68
2023/09/10 08:24:39;;;;;;;38.63;21.30;;;;;;;;;;4970890;28;21642;-73
2023/09/10 08:27:06;;;;;;;38.08;21.70;;;;;;;;;;4979863;28;20081;-68
2023/09/10 08:29:33;;;;;;;45.58;24.35;;;;;;;;;;4979351;28;20157;-68
2023/09/10 08:32:01;;;;;;;45.78;23.77;;;;;;;;;;4976046;28;20051;-63
2023/09/10 08:34:29;;;;;;;41.17;21.42;;;;;;;;;;4950060;28;20046;-69
2023/09/10 08:36:56;;;;;;;;;;;;;;;;;;4985618;28;20050;-68
2023/09/10 08:39:22;;;;;;;35.92;20.60;;;;;;;;;;4980493;28;19926;-69
2023/09/10 08:41:56;;;;;;;40.38;21.50;;;;;;;;;;4981906;28;20104;-68
2023/09/10 08:44:25;;;;;;;45.00;23.17;;;;;;;;;;4979032;28;20152;-66
2023/09/10 08:46:53;;;;;;;42.92;22.60;;;;;;;;;;4961093;28;20058;-67
2023/09/10 08:49:22;;;;;;;41.03;20.85;;;;;;;;;;4981916;28;20112;-69
2023/09/10 08:51:50;;;;;;;40.22;21.45;;;;;;;;;;4981237;28;20177;-67
2023/09/10 08:54:19;;;;;;;;;;;;;;;;;;4964795;28;20050;-67
2023/09/10 08:56:48;;;;;;;37.17;21.60;;;;;;;;;;4978817;28;19957;-71
2023/09/10 08:59:15;;;;;;;39.05;21.55;;;;;;;;;;4974433;28;20054;-66
2023/09/10 09:01:43;;;;;;;57.55;30.77;;;;;;;;;;4980353;28;20058;-66
2023/09/10 09:04:11;;;;;;;45.05;23.05;;;;;;;;;;4965368;28;20140;-72
2023/09/10 09:06:41;;;;;;;83.13;45.35;;;;;;;;;;4985668;28;20062;-69
2023/09/10 09:09:12;;;;;;;53.50;29.13;;;;;;;;;;4980500;28;20054;-71
2023/09/10 09:11:40;;;;;;;37.60;19.35;;;;;;;;;;4979570;28;20078;-67
2023/09/10 09:14:09;;;;;;;38.45;18.67;;;;;;;;;;4968022;28;20062;-66
2023/09/10 09:16:39;;;;;;;39.80;18.50;;;;;;;;;;4969712;28;20054;-66
2023/09/10 09:19:11;;;;;;;37.33;19.30;;;;;;;;;;4995698;28;20066;-68
2023/09/10 09:21:40;;;;;;;39.97;22.30;;;;;;;;;;4980812;28;20068;-68
2023/09/10 09:24:12;;;;;;;34.38;18.50;;;;;;;;;;4967658;28;20146;-66
2023/09/10 09:26:39;;;;;;;28.50;15.80;;;;;;;;;;4976182;28;20057;-66
2023/09/10 09:29:08;;;;;;;33.15;17.15;;;;;;;;;;4986183;28;20062;-68
2023/09/10 09:31:34;;;;;;;30.38;16.70;;;;;;;;;;4980722;28;20086;-68
2023/09/10 09:34:01;;;;;;;30.10;16.38;;;;;;;;;;4976287;28;20065;-67
2023/09/10 09:36:29;;;;;;;31.45;16.05;;;;;;;;;;4967941;28;20209;-71
2023/09/10 09:38:56;;;;;;;28.77;15.52;;;;;;;;;;4980504;28;20081;-65
2023/09/10 09:41:24;;;;;;;27.92;15.65;;;;;;;;;;4989654;28;20046;-68
2023/09/10 09:43:51;;;;;;;30.10;13.75;;;;;;;;;;4974794;28;20116;-66
2023/09/10 09:46:18;;;;;;;27.20;14.68;;;;;;;;;;4960923;28;20165;-67
2023/09/10 09:48:45;;;;;;;28.27;14.82;;;;;;;;;;4974411;28;20054;-68
2023/09/10 09:51:15;;;;;;;38.38;14.48;;;;;;;;;;4980635;28;20080;-67
2023/09/10 09:53:43;;;;;;;26.50;14.73;;;;;;;;;;4973252;28;20101;-63
2023/09/10 09:56:10;;;;;;;29.58;12.93;;;;;;;;;;4964153;28;20053;-66
2023/09/10 09:58:38;;;;;;;26.50;13.35;;;;;;;;;;4978699;28;20066;-66
2023/09/10 10:01:04;;;;;;;26.42;11.00;;;;;;;;;;4982177;28;20055;-67
2023/09/10 10:03:32;;;;;;;25.38;12.07;;;;;;;;;;4963045;28;20183;-64
2023/09/10 10:05:59;;;;;;;31.48;13.40;;;;;;;;;;4969016;28;20090;-67
2023/09/10 10:08:27;;;;;;;28.65;12.98;;;;;;;;;;4968157;28;20062;-67
2023/09/10 10:10:54;;;;;;;22.55;12.00;;;;;;;;;;4980447;28;20061;-68
2023/09/10 10:13:26;;;;;;;21.52;11.25;;;;;;;;;;4971553;28;20046;-66
2023/09/10 10:15:56;;;;;;;29.63;11.18;;;;;;;;;;4983239;28;20054;-69
2023/09/10 10:18:26;;;;;;;22.75;10.85;;;;;;;;;;4972840;28;20064;-68
2023/09/10 10:20:55;;;;;;;26.88;11.20;;;;;;;;;;4992544;28;20123;-64
2023/09/10 10:23:22;;;;;;;20.65;10.20;;;;;;;;;;4981247;28;20119;-68
2023/09/10 10:25:49;;;;;;;27.38;9.27;;;;;;;;;;4983672;28;20058;-67
2023/09/10 10:28:17;;;;;;;23.70;9.07;;;;;;;;;;4949957;28;20173;-67
2023/09/10 10:30:50;;;;;;;22.83;10.15;;;;;;;;;;4973227;28;20050;-67
2023/09/10 10:33:22;;;;;;;21.45;8.27;;;;;;;;;;4977706;28;20046;-67
2023/09/10 10:35:59;;;;;;;19.67;8.60;;;;;;;;;;4970655;28;20060;-68
2023/09/10 10:38:31;;;;;;;19.13;7.97;;;;;;;;;;4966563;28;20050;-69
2023/09/10 10:40:58;;;;;;;19.70;8.55;;;;;;;;;;4976193;28;20042;-70
2023/09/10 10:43:30;;;;;;;26.73;8.67;;;;;;;;;;4973179;28;20111;-73
2023/09/10 10:45:58;;;;;;;19.98;9.00;;;;;;;;;;4976192;28;20073;-69
2023/09/10 10:48:30;;;;;;;23.35;9.30;;;;;;;;;;4973138;28;20091;-66
2023/09/10 10:50:58;;;;;;;25.65;11.27;;;;;;;;;;4981213;28;20069;-67
2023/09/10 10:53:25;;;;;;;21.65;10.85;;;;;;;;;;4991962;28;20260;-69
2023/09/10 10:55:55;;;;;;;25.33;11.23;;;;;;;;;;4913507;28;20059;-66
2023/09/10 10:58:24;;;;;;;22.52;7.82;;;;;;;;;;4966837;28;20054;-64
2023/09/10 11:00:52;;;;;;;20.20;6.88;;;;;;;;;;4997278;28;20057;-66
2023/09/10 11:03:21;;;;;;;16.90;7.15;;;;;;;;;;4997978;28;20154;-70
2023/09/10 11:06:08;;;;;;;15.32;6.35;;;;;;;;;;4958228;28;20054;-67
2023/09/10 11:08:39;;;;;;;16.75;7.15;;;;;;;;;;4970612;28;20085;-68
2023/09/10 11:11:10;;;;;;;20.58;7.38;;;;;;;;;;4978265;28;20113;-64
2023/09/10 11:14:00;;;;;;;20.98;8.05;;;;;;;;;;5001830;28;20046;-66
2023/09/10 11:16:29;;;;;;;13.43;6.82;;;;;;;;;;4952038;28;20109;-68
2023/09/10 11:18:56;;;;;;;18.15;7.50;;;;;;;;;;4962575;28;20067;-63
2023/09/10 11:22:03;;;;;;;20.80;8.38;;;;;;;;;;4991272;28;20108;-65
2023/09/10 11:24:34;;;;;;;15.07;5.80;;;;;;;;;;4999375;28;20351;-74
2023/09/10 11:27:22;;;;;;;22.70;6.28;;;;;;;;;;4980686;28;20077;-67
2023/09/10 11:30:10;;;;;;;15.73;6.03;;;;;;;;;;4976426;28;20405;-67
2023/09/10 11:32:37;;;;;;;15.20;5.60;;;;;;;;;;4961221;28;20266;-64
2023/09/10 11:35:26;;;;;;;13.43;5.20;;;;;;;;;;4957253;28;20053;-68
2023/09/10 11:37:56;;;;;;;14.63;5.20;;;;;;;;;;4976539;28;20058;-70
2023/09/10 11:40:24;;;;;;;14.25;5.13;;;;;;;;;;4970816;28;20121;-69
2023/09/10 11:42:51;;;;;;;13.60;4.53;;;;;;;;;;4981658;28;20141;-68
2023/09/10 11:45:19;;;;;;;11.10;4.60;;;;;;;;;;4982337;28;20081;-70
2023/09/10 11:47:47;;;;;;;10.02;4.88;;;;;;;;;;5000234;28;20064;-63
2023/09/10 11:50:21;;;;;;;11.68;4.43;;;;;;;;;;4994544;28;20057;-66
2023/09/10 11:52:49;;;;;;;14.43;4.63;;;;;;;;;;4976395;28;20054;-65
2023/09/10 11:55:18;;;;;;;11.82;4.50;;;;;;;;;;4960839;28;20081;-70
2023/09/10 11:57:46;;;;;;;15.07;4.63;;;;;;;;;;4984401;28;20078;-70
2023/09/10 12:00:16;;;;;;;12.55;4.82;;;;;;;;;;4974181;28;20058;-71
2023/09/10 12:02:43;;;;;;;12.48;5.20;;;;;;;;;;4995823;28;20129;-66
2023/09/10 12:05:12;;;;;;;13.38;6.22;;;;;;;;;;4952623;28;20132;-67
2023/09/10 12:07:43;;;;;;;11.65;6.05;;;;;;;;;;4983555;28;20109;-67
2023/09/10 12:10:12;;;;;;;19.02;5.22;;;;;;;;;;4973347;28;20105;-65
2023/09/10 12:12:42;;;;;;;13.75;4.88;;;;;;;;;;4976776;28;20054;-68
2023/09/10 12:15:17;;;;;;;15.07;4.22;;;;;;;;;;4959583;28;20062;-70
2023/09/10 12:17:44;;;;;;;11.25;4.53;;;;;;;;;;4998911;28;20069;-63
2023/09/10 12:20:17;;;;;;;13.60;5.00;;;;;;;;;;4993343;28;20054;-71
2023/09/10 12:22:48;;;;;;;10.35;4.85;;;;;;;;;;4980533;28;20125;-65
2023/09/10 12:25:17;;;;;;;12.07;5.97;;;;;;;;;;4959593;28;20050;-75
2023/09/10 12:27:47;;;;;;;11.57;5.40;;;;;;;;;;4968061;28;20153;-66
2023/09/10 12:30:16;;;;;;;16.65;5.18;;;;;;;;;;4969046;28;20073;-69
2023/09/10 12:32:43;;;;;;;10.35;4.88;;;;;;;;;;4978312;28;20054;-68
2023/09/10 12:35:11;;;;;;;11.80;5.15;;;;;;;;;;4962084;28;20054;-67
2023/09/10 12:37:50;;;;;;;13.35;4.32;;;;;;;;;;4982643;28;20068;-66
2023/09/10 12:40:24;;;;;;;9.25;4.35;;;;;;;;;;4975812;28;20060;-70
2023/09/10 12:42:55;;;;;;;14.32;4.82;;;;;;;;;;4984569;28;20054;-64
2023/09/10 12:45:26;;;;;;;12.77;4.55;;;;;;;;;;4929795;28;20194;-70
2023/09/10 12:48:23;;;;;;;;;;;;;;;;;;;;;
2023/09/10 12:50:51;;;;;;;9.38;4.47;;;;;;;;;;4998385;28;20144;-69
2023/09/10 12:53:18;;;;;;;11.82;4.55;;;;;;;;;;5004612;28;20052;-68
2023/09/10 12:55:44;;;;;;;9.48;4.03;;;;;;;;;;4981620;28;20046;-69
2023/09/10 12:58:14;;;;;;;24.83;11.25;;;;;;;;;;4981758;28;20062;-71
2023/09/10 13:00:43;;;;;;;12.32;6.00;;;;;;;;;;4973949;28;20086;-67
2023/09/10 13:03:10;;;;;;;14.32;4.65;;;;;;;;;;4965576;28;20061;-74
2023/09/10 13:05:37;;;;;;;10.02;4.03;;;;;;;;;;4966096;28;20109;-66
2023/09/10 13:08:09;;;;;;;11.05;3.92;;;;;;;;;;4983532;28;20053;-69
2023/09/10 13:10:36;;;;;;;10.25;4.03;;;;;;;;;;4995744;28;20057;-71
2023/09/10 13:13:07;;;;;;;12.60;3.85;;;;;;;;;;4969615;28;20050;-66
2023/09/10 13:15:41;;;;;;;14.43;4.07;;;;;;;;;;4970523;28;20054;-65
2023/09/10 13:18:14;;;;;;;11.57;4.00;;;;;;;;;;4998680;28;20058;-69
2023/09/10 13:20:44;;;;;;;12.68;4.40;;;;;;;;;;4983293;28;20073;-67
2023/09/10 13:23:11;;;;;;;10.60;4.55;;;;;;;;;;4973030;28;20065;-69
2023/09/10 13:25:37;;;;;;;12.20;4.70;;;;;;;;;;4936409;28;20124;-69
2023/09/10 13:28:05;;;;;;;12.57;4.60;;;;;;;;;;4982536;28;20148;-71
2023/09/10 13:30:38;;;;;;;17.52;4.68;;;;;;;;;;4971824;28;20057;-72
2023/09/10 13:33:09;;;;;;;9.18;4.13;;;;;;;;;;4998133;28;20078;-62
2023/09/10 13:35:39;;;;;;;17.75;5.20;;;;;;;;;;4951285;28;20050;-63
2023/09/10 13:38:06;;;;;;;19.50;4.53;;;;;;;;;;4990912;28;20069;-71
2023/09/10 13:40:34;;;;;;;11.43;4.35;;;;;;;;;;4973705;28;20050;-69
2023/09/10 13:43:01;;;;;;;15.68;4.50;;;;;;;;;;4962877;28;20133;-68
2023/09/10 13:45:29;;;;;;;12.00;4.27;;;;;;;;;;4964615;28;20053;-68
2023/09/10 13:47:56;;;;;;;13.05;4.28;;;;;;;;;;4981616;28;20064;-65
2023/09/10 13:50:24;;;;;;;15.02;4.70;;;;;;;;;;4978487;28;20062;-68
2023/09/10 13:52:51;;;;;;;10.60;4.28;;;;;;;;;;4981134;28;20066;-68
2023/09/10 13:55:18;;;;;;;8.88;3.95;;;;;;;;;;4971276;28;20108;-71
2023/09/10 13:57:45;;;;;;;9.00;4.55;;;;;;;;;;4999140;28;20128;-63
2023/09/10 14:00:12;;;;;;;17.42;8.40;;;;;;;;;;4980494;28;21372;-69
2023/09/10 14:02:41;;;;;;;10.45;5.53;;;;;;;;;;4993972;28;20050;-65
2023/09/10 14:05:08;;;;;;;15.40;4.30;;;;;;;;;;4971004;28;20166;-70
2023/09/10 14:07:38;;;;;;;12.77;4.82;;;;;;;;;;5010009;28;20095;-70
2023/09/10 14:10:26;;;;;;;12.52;4.47;;;;;;;;;;4974918;28;20057;-70
2023/09/10 14:13:12;;;;;;;11.50;4.15;;;;;;;;;;4978487;28;20088;-72
2023/09/10 14:15:40;;;;;;;11.35;4.18;;;;;;;;;;4957227;28;20045;-66
2023/09/10 14:18:08;;;;;;;12.85;4.13;;;;;;;;;;4972714;28;20139;-63
2023/09/10 14:20:36;;;;;;;9.60;4.27;;;;;;;;;;4968841;28;20303;-67
2023/09/10 14:23:26;;;;;;;15.13;3.92;;;;;;;;;;4989642;28;20313;-66
2023/09/10 14:25:53;;;;;;;11.27;4.50;;;;;;;;;;4962236;28;20065;-64
2023/09/10 14:28:22;;;;;;;12.82;5.40;;;;;;;;;;4978515;28;20054;-67
2023/09/10 14:30:49;;;;;;;17.38;8.40;;;;;;;;;;4981161;28;20054;-67
2023/09/10 14:33:16;;;;;;;9.95;4.90;;;;;;;;;;4973693;28;20152;-66
2023/09/10 14:35:43;;;;;;;7.88;4.40;;;;;;;;;;4950551;28;20060;-65
2023/09/10 14:38:11;;;;;;;11.85;4.28;;;;;;;;;;4970227;28;20057;-66